Terminal Aerodrome Forecast
Issued by NWS

Home | Current Version | Previous Version | Text Only | Print | Product List | Glossary On
Versions: 1 2 3 4 5 6 7 8 9 10 11 12 13 14 15 16 17 18 19 20
000
FTUS43 KAPX 030933 AAA
TAFAPN
TAF AMD
KAPN 030933Z 0310/0406 VRB03KT P6SM SCT008
      TEMPO 0310/0312 4SM BR FEW002 BKN008
     FM031400 29007KT P6SM BKN040
     FM031900 06006KT P6SM VCSH BKN040
     FM040100 VRB03KT P6SM BKN050=

USA.gov is the U.S. government's official web portal to all federal, state and local government web resources and services.